createdAt,value
2023-05-19T00:00:34.687Z,41.04
2023-05-19T00:03:19.943Z,41.34
2023-05-19T00:06:05.414Z,41.68
2023-05-19T00:08:50.668Z,41.04
2023-05-19T00:11:36.124Z,41.10
2023-05-19T00:14:23.898Z,40.94
2023-05-19T00:17:09.388Z,41.03
2023-05-19T00:19:54.589Z,41.07
2023-05-19T00:22:39.959Z,40.94
2023-05-19T00:25:25.257Z,41.32
2023-05-19T00:28:10.747Z,41.34
2023-05-19T00:30:56.346Z,40.99
2023-05-19T00:33:41.730Z,41.32
2023-05-19T00:36:27.257Z,40.94
2023-05-19T00:39:12.563Z,41.29
2023-05-19T00:41:57.948Z,41.27
2023-05-19T00:44:43.384Z,41.18
2023-05-19T00:47:29.032Z,41.13
2023-05-19T00:50:14.376Z,41.11
2023-05-19T00:52:59.566Z,41.13
2023-05-19T00:55:44.917Z,41.22
2023-05-19T00:58:30.473Z,41.05
2023-05-19T01:01:15.904Z,41.05
2023-05-19T01:04:01.428Z,41.24
2023-05-19T01:06:46.435Z,40.90
2023-05-19T01:09:31.730Z,40.97
2023-05-19T01:12:17.334Z,40.87
2023-05-19T01:15:02.682Z,40.85
2023-05-19T01:17:47.798Z,41.21
2023-05-19T01:20:33.335Z,40.99
2023-05-19T01:23:18.595Z,40.78
2023-05-19T01:26:03.982Z,41.27
2023-05-19T01:28:50.463Z,40.89
2023-05-19T01:31:35.649Z,41.12
2023-05-19T01:34:21.212Z,41.03
2023-05-19T01:37:06.358Z,41.13
2023-05-19T01:39:51.713Z,41.11
2023-05-19T01:42:37.150Z,41.15
2023-05-19T01:45:22.528Z,41.17
2023-05-19T01:48:10.596Z,41.25
2023-05-19T01:50:56.218Z,41.10
2023-05-19T01:53:42.603Z,41.32
2023-05-19T01:56:27.881Z,41.38
2023-05-19T01:59:13.344Z,40.79
2023-05-19T02:01:58.768Z,40.74
2023-05-19T02:04:44.352Z,41.24
2023-05-19T02:07:29.524Z,40.90
2023-05-19T02:10:14.968Z,41.33
2023-05-19T02:13:00.324Z,41.32
2023-05-19T02:15:45.699Z,41.09
2023-05-19T02:18:31.064Z,41.04
2023-05-19T02:21:16.379Z,40.92
2023-05-19T02:24:01.846Z,41.18
2023-05-19T02:26:47.146Z,41.04
2023-05-19T02:29:32.583Z,40.70
2023-05-19T02:32:17.998Z,41.04
2023-05-19T02:35:03.354Z,40.93
2023-05-19T02:37:48.755Z,41.25
2023-05-19T02:40:34.194Z,41.14
2023-05-19T02:43:19.413Z,41.16
2023-05-19T02:46:04.968Z,41.04
2023-05-19T02:48:50.485Z,40.93
2023-05-19T02:51:36.103Z,40.90
2023-05-19T02:54:21.565Z,41.36
2023-05-19T02:57:06.885Z,41.21
2023-05-19T02:59:52.165Z,41.02
2023-05-19T03:02:37.813Z,41.20
2023-05-19T03:05:23.090Z,41.21
2023-05-19T03:08:08.461Z,41.24
2023-05-19T03:10:54.142Z,41.26
2023-05-19T03:13:39.460Z,40.96
2023-05-19T03:16:24.969Z,40.86
2023-05-19T03:19:10.019Z,40.88
2023-05-19T03:21:55.571Z,40.75
2023-05-19T03:24:40.864Z,40.67
2023-05-19T03:27:26.294Z,40.91
2023-05-19T03:30:11.562Z,40.85
2023-05-19T03:32:57.253Z,41.08
2023-05-19T03:35:44.994Z,41.31
2023-05-19T03:38:30.148Z,40.39
2023-05-19T03:41:15.426Z,41.11
2023-05-19T03:44:00.815Z,41.36
2023-05-19T03:46:46.021Z,40.77
2023-05-19T03:49:31.412Z,41.15
2023-05-19T03:52:16.777Z,41.44
2023-05-19T03:55:02.018Z,41.04
2023-05-19T03:57:47.370Z,40.73
2023-05-19T04:00:32.977Z,41.17
2023-05-19T04:03:18.841Z,40.55
2023-05-19T04:06:04.386Z,40.82
2023-05-19T04:08:49.854Z,40.30
2023-05-19T04:11:35.325Z,40.48
2023-05-19T04:14:20.770Z,40.53
2023-05-19T04:17:06.184Z,40.33
2023-05-19T04:19:51.495Z,40.72
2023-05-19T04:22:36.751Z,40.87
2023-05-19T04:25:22.043Z,40.65
2023-05-19T04:28:07.415Z,40.43
2023-05-19T04:30:53.024Z,40.91
2023-05-19T04:33:38.347Z,40.70
2023-05-19T04:36:23.724Z,40.74
2023-05-19T04:39:08.982Z,40.44
2023-05-19T04:41:54.117Z,40.51
2023-05-19T04:44:39.533Z,40.55
2023-05-19T04:47:24.898Z,40.30
2023-05-19T04:50:10.306Z,40.70
2023-05-19T04:52:55.678Z,41.45
2023-05-19T04:55:40.852Z,41.03
2023-05-19T04:58:26.238Z,41.26
2023-05-19T05:01:11.457Z,41.38
2023-05-19T05:03:56.962Z,41.72
2023-05-19T05:06:42.126Z,41.91
2023-05-19T05:09:27.408Z,41.42
2023-05-19T05:12:12.758Z,41.38
2023-05-19T05:14:58.214Z,41.14
2023-05-19T05:17:43.879Z,42.04
2023-05-19T05:20:29.159Z,42.50
2023-05-19T05:23:14.468Z,41.97
2023-05-19T05:25:59.786Z,42.07
2023-05-19T05:28:45.002Z,41.49
2023-05-19T05:31:30.435Z,41.83
2023-05-19T05:34:15.766Z,41.87
2023-05-19T05:37:01.140Z,41.91
2023-05-19T05:39:46.549Z,41.85
2023-05-19T05:42:31.868Z,41.57
2023-05-19T05:45:17.259Z,42.00
2023-05-19T05:48:02.623Z,41.58
2023-05-19T05:50:48.106Z,41.63
2023-05-19T05:53:33.496Z,41.51
2023-05-19T05:56:18.850Z,41.96
2023-05-19T05:59:04.113Z,41.48
2023-05-19T06:01:49.495Z,41.58
2023-05-19T06:04:34.842Z,42.35
2023-05-19T06:07:20.168Z,41.95
2023-05-19T06:10:05.532Z,42.08
2023-05-19T06:12:50.781Z,42.25
2023-05-19T06:15:36.176Z,42.27
2023-05-19T06:18:21.465Z,42.42
2023-05-19T06:21:06.850Z,42.49
2023-05-19T06:23:52.231Z,42.63
2023-05-19T06:26:37.419Z,42.98
2023-05-19T06:29:22.645Z,42.82
2023-05-19T06:32:07.887Z,43.03
2023-05-19T06:34:53.263Z,43.00
2023-05-19T06:37:38.708Z,43.07
2023-05-19T06:40:23.999Z,43.02
2023-05-19T06:43:09.525Z,43.10
2023-05-19T06:45:54.820Z,43.15
2023-05-19T06:48:40.188Z,42.83
2023-05-19T06:51:25.538Z,42.86
2023-05-19T06:54:10.966Z,43.14
2023-05-19T06:56:56.289Z,42.94
2023-05-19T06:59:41.571Z,42.89
2023-05-19T07:02:27.100Z,43.14
2023-05-19T07:05:12.083Z,42.91
2023-05-19T07:07:57.471Z,42.75
2023-05-19T07:10:42.796Z,42.77
2023-05-19T07:13:28.180Z,42.82
2023-05-19T07:16:13.616Z,42.49
2023-05-19T07:18:58.971Z,42.44
2023-05-19T07:21:44.281Z,42.62
2023-05-19T07:24:29.906Z,42.71
2023-05-19T07:27:15.005Z,42.57
2023-05-19T07:30:00.399Z,42.00
2023-05-19T07:32:45.960Z,42.70
2023-05-19T07:35:31.338Z,43.23
2023-05-19T07:38:16.591Z,43.01
2023-05-19T07:41:02.020Z,42.80
2023-05-19T07:43:47.408Z,41.81
2023-05-19T07:46:32.837Z,41.88
2023-05-19T07:49:18.337Z,40.97
2023-05-19T07:52:03.638Z,38.51
2023-05-19T07:54:48.979Z,39.51
2023-05-19T07:57:34.353Z,39.21
2023-05-19T08:00:19.698Z,36.67
2023-05-19T08:03:05.163Z,36.83
2023-05-19T08:05:50.299Z,36.89
2023-05-19T08:08:38.656Z,35.54
2023-05-19T08:11:23.843Z,36.73
2023-05-19T08:14:09.082Z,36.06
2023-05-19T08:16:54.606Z,36.14
2023-05-19T08:19:39.980Z,35.85
2023-05-19T08:22:25.425Z,36.05
2023-05-19T08:25:10.785Z,36.03
2023-05-19T08:27:55.984Z,36.35
2023-05-19T08:30:41.342Z,35.18
2023-05-19T08:33:26.929Z,35.62
2023-05-19T08:36:12.268Z,35.26
2023-05-19T08:38:57.569Z,35.30
2023-05-19T08:41:42.756Z,35.08
2023-05-19T08:44:27.917Z,35.11
2023-05-19T08:47:13.200Z,35.45
2023-05-19T08:49:58.555Z,35.59
2023-05-19T08:52:45.350Z,35.53
2023-05-19T08:55:32.360Z,35.73
2023-05-19T08:58:17.609Z,35.77
2023-05-19T09:01:02.978Z,35.90
2023-05-19T09:03:48.327Z,35.81
2023-05-19T09:06:33.558Z,35.90
2023-05-19T09:09:18.918Z,35.63
2023-05-19T09:12:04.625Z,35.51
2023-05-19T09:14:49.924Z,35.67
2023-05-19T09:17:35.468Z,35.63
2023-05-19T09:20:20.835Z,35.90
2023-05-19T09:23:06.189Z,35.81
2023-05-19T09:25:51.515Z,36.51
2023-05-19T09:28:36.909Z,35.99
2023-05-19T09:31:22.294Z,36.19
2023-05-19T09:34:07.549Z,35.88
2023-05-19T09:36:52.942Z,35.73
2023-05-19T09:39:38.397Z,35.54
2023-05-19T09:42:23.616Z,35.60
2023-05-19T09:45:09.215Z,35.17
2023-05-19T09:47:54.573Z,35.03
2023-05-19T09:50:40.061Z,35.11
2023-05-19T09:53:25.524Z,35.05
2023-05-19T09:56:10.944Z,35.05
2023-05-19T09:58:56.496Z,35.11
2023-05-19T10:01:41.871Z,35.01
2023-05-19T10:04:27.185Z,35.35
2023-05-19T10:07:12.446Z,35.68
2023-05-19T10:09:58.663Z,35.87
2023-05-19T10:12:44.061Z,36.17
2023-05-19T10:15:29.320Z,35.93
2023-05-19T10:18:14.806Z,36.46
2023-05-19T10:21:00.049Z,36.55
2023-05-19T10:23:45.475Z,36.63
2023-05-19T10:26:30.731Z,36.11
2023-05-19T10:29:16.125Z,36.67
2023-05-19T10:32:01.742Z,37.15
2023-05-19T10:34:46.992Z,37.46
2023-05-19T10:37:32.101Z,37.51
2023-05-19T10:40:17.460Z,37.68
2023-05-19T10:43:02.684Z,37.42
2023-05-19T10:45:47.996Z,37.95
2023-05-19T10:48:33.408Z,37.78
2023-05-19T10:51:19.051Z,37.82
2023-05-19T10:54:04.275Z,38.22
2023-05-19T10:56:49.545Z,38.24
2023-05-19T10:59:35.039Z,38.41
2023-05-19T11:02:20.642Z,38.24
2023-05-19T11:05:06.090Z,38.04
2023-05-19T11:07:51.217Z,38.24
2023-05-19T11:10:36.466Z,38.28
2023-05-19T11:13:22.661Z,38.37
2023-05-19T11:16:08.613Z,38.04
2023-05-19T11:18:53.952Z,38.04
2023-05-19T11:21:39.356Z,38.29
2023-05-19T11:24:24.839Z,38.30
2023-05-19T11:27:10.079Z,38.47
2023-05-19T11:29:55.411Z,37.95
2023-05-19T11:32:40.845Z,38.27
2023-05-19T11:35:26.159Z,37.97
2023-05-19T11:38:11.525Z,38.18
2023-05-19T11:40:56.726Z,38.04
2023-05-19T11:43:42.024Z,37.83
2023-05-19T11:46:27.520Z,38.07
2023-05-19T11:49:12.605Z,37.72
2023-05-19T11:51:58.100Z,37.83
2023-05-19T11:54:43.496Z,38.24
2023-05-19T11:57:28.841Z,38.36
2023-05-19T12:00:14.200Z,37.89
2023-05-19T12:02:59.618Z,37.75
2023-05-19T12:05:45.287Z,37.97
2023-05-19T12:08:30.627Z,37.96
2023-05-19T12:11:17.478Z,37.86
2023-05-19T12:14:03.145Z,37.74
2023-05-19T12:16:48.496Z,37.47
2023-05-19T12:19:34.042Z,37.41
2023-05-19T12:22:19.317Z,37.40
2023-05-19T12:25:04.440Z,37.60
2023-05-19T12:27:49.740Z,37.13
2023-05-19T12:30:35.568Z,37.04
2023-05-19T12:33:21.211Z,37.15
2023-05-19T12:36:06.457Z,37.08
2023-05-19T12:38:51.655Z,36.94
2023-05-19T12:41:36.926Z,36.90
2023-05-19T12:44:22.212Z,37.15
2023-05-19T12:47:07.397Z,36.94
2023-05-19T12:49:52.725Z,36.85
2023-05-19T12:52:38.256Z,36.19
2023-05-19T12:55:23.581Z,36.41
2023-05-19T12:58:09.039Z,36.32
2023-05-19T13:00:54.620Z,36.43
2023-05-19T13:03:39.912Z,36.40
2023-05-19T13:06:24.787Z,35.74
2023-05-19T13:09:09.715Z,36.27
2023-05-19T13:11:54.812Z,36.02
2023-05-19T13:14:40.058Z,35.64
2023-05-19T13:17:25.411Z,36.42
2023-05-19T13:20:10.608Z,35.93
2023-05-19T13:22:56.038Z,35.94
2023-05-19T13:25:41.215Z,35.79
2023-05-19T13:28:26.394Z,35.81
2023-05-19T13:31:11.912Z,35.62
2023-05-19T13:33:57.055Z,35.24
2023-05-19T13:36:42.701Z,35.36
2023-05-19T13:39:28.052Z,35.34
2023-05-19T13:42:13.327Z,35.42
2023-05-19T13:44:58.754Z,34.81
2023-05-19T13:47:43.975Z,34.91
2023-05-19T13:50:29.409Z,35.03
2023-05-19T13:53:14.599Z,35.03
2023-05-19T13:55:59.879Z,35.40
2023-05-19T13:58:45.263Z,35.00
2023-05-19T14:01:30.647Z,34.60
2023-05-19T14:04:16.120Z,35.18
2023-05-19T14:07:01.447Z,34.73
2023-05-19T14:09:46.841Z,34.80
2023-05-19T14:12:41.338Z,34.73
2023-05-19T14:15:32.764Z,34.63
2023-05-19T14:18:18.342Z,34.80
2023-05-19T14:21:03.655Z,35.00
2023-05-19T14:23:48.903Z,34.97
2023-05-19T14:26:34.270Z,34.68
2023-05-19T14:29:19.708Z,34.88
2023-05-19T14:32:05.094Z,34.82
2023-05-19T14:34:50.398Z,34.99
2023-05-19T14:37:35.920Z,34.74
2023-05-19T14:40:21.218Z,34.82
2023-05-19T14:43:06.506Z,34.85
2023-05-19T14:45:51.738Z,34.97
2023-05-19T14:48:37.136Z,34.58
2023-05-19T14:51:22.487Z,34.62
2023-05-19T14:54:07.933Z,34.78
2023-05-19T14:56:53.246Z,34.71
2023-05-19T14:59:38.634Z,34.46
2023-05-19T15:02:23.964Z,34.41
2023-05-19T15:05:09.243Z,34.50
2023-05-19T15:07:54.660Z,34.55
2023-05-19T15:10:40.157Z,34.25
2023-05-19T15:13:25.517Z,34.33
2023-05-19T15:16:17.585Z,34.14
2023-05-19T15:19:03.901Z,34.38
2023-05-19T15:21:49.170Z,34.37
2023-05-19T15:24:34.473Z,34.73
2023-05-19T15:27:19.830Z,34.62
2023-05-19T15:30:07.598Z,34.73
2023-05-19T15:32:54.571Z,34.69
2023-05-19T15:35:40.529Z,34.82
2023-05-19T15:41:10.882Z,35.12
2023-05-19T15:43:56.290Z,35.10
2023-05-19T15:46:42.166Z,35.52
2023-05-19T15:49:27.623Z,34.85
2023-05-19T15:52:13.492Z,35.51
2023-05-19T15:55:00.458Z,35.50
2023-05-19T15:57:45.550Z,35.24
2023-05-19T16:00:32.224Z,35.18
2023-05-19T16:03:17.975Z,35.22
2023-05-19T16:06:03.258Z,35.27
2023-05-19T16:08:48.635Z,35.26
2023-05-19T16:11:33.912Z,35.07
2023-05-19T16:14:19.137Z,35.28
2023-05-19T16:17:04.652Z,35.14
2023-05-19T16:19:49.918Z,35.34
2023-05-19T16:22:35.262Z,35.23
2023-05-19T16:25:20.702Z,35.39
2023-05-19T16:28:06.168Z,35.56
2023-05-19T16:30:51.572Z,35.21
2023-05-19T16:33:36.858Z,35.56
2023-05-19T16:36:22.174Z,35.35
2023-05-19T16:39:07.471Z,35.59
2023-05-19T16:41:52.900Z,35.73
2023-05-19T16:44:38.226Z,35.79
2023-05-19T16:47:23.452Z,35.97
2023-05-19T16:50:08.881Z,35.97
2023-05-19T16:52:54.102Z,36.13
2023-05-19T16:55:39.413Z,36.11
2023-05-19T16:58:24.834Z,36.25
2023-05-19T17:01:10.226Z,36.35
2023-05-19T17:03:55.616Z,35.63
2023-05-19T17:06:40.934Z,36.09
2023-05-19T17:09:26.488Z,36.42
2023-05-19T17:12:11.857Z,37.09
2023-05-19T17:14:57.267Z,36.43
2023-05-19T17:17:42.689Z,37.27
2023-05-19T17:20:27.900Z,37.27
2023-05-19T17:23:13.384Z,37.21
2023-05-19T17:25:58.758Z,37.19
2023-05-19T17:28:44.342Z,37.18
2023-05-19T17:31:30.132Z,37.69
2023-05-19T17:34:15.333Z,38.37
2023-05-19T17:37:00.855Z,37.84
2023-05-19T17:39:46.107Z,37.76
2023-05-19T17:42:32.245Z,37.79
2023-05-19T17:45:18.227Z,37.50
2023-05-19T17:48:03.437Z,37.59
2023-05-19T17:50:48.849Z,37.67
2023-05-19T17:53:34.200Z,37.50
2023-05-19T17:56:19.548Z,37.42
2023-05-19T17:59:04.746Z,37.31
2023-05-19T18:01:50.652Z,37.31
2023-05-19T18:04:35.926Z,37.69
2023-05-19T18:07:21.302Z,37.64
2023-05-19T18:10:06.773Z,37.75
2023-05-19T18:12:51.963Z,38.20
2023-05-19T18:15:37.469Z,38.45
2023-05-19T18:18:23.004Z,38.11
2023-05-19T18:21:08.260Z,38.18
2023-05-19T18:23:53.708Z,38.54
2023-05-19T18:26:38.982Z,38.57
2023-05-19T18:29:24.471Z,38.31
2023-05-19T18:32:09.785Z,38.62
2023-05-19T18:34:55.272Z,38.44
2023-05-19T18:37:40.763Z,38.60
2023-05-19T18:40:26.096Z,38.22
2023-05-19T18:43:14.373Z,38.25
2023-05-19T18:45:59.804Z,38.53
2023-05-19T18:48:44.945Z,38.53
2023-05-19T18:51:30.178Z,38.58
2023-05-19T18:54:15.419Z,38.52
2023-05-19T18:57:00.866Z,38.84
2023-05-19T18:59:45.904Z,38.72
2023-05-19T19:02:31.213Z,38.85
2023-05-19T19:05:16.593Z,38.85
2023-05-19T19:08:01.874Z,38.48
2023-05-19T19:10:47.126Z,38.43
2023-05-19T19:13:32.397Z,38.66
2023-05-19T19:16:17.662Z,38.32
2023-05-19T19:19:03.160Z,38.55
2023-05-19T19:21:48.418Z,38.59
2023-05-19T19:24:33.888Z,38.95
2023-05-19T19:27:18.913Z,39.13
2023-05-19T19:30:04.459Z,38.87
2023-05-19T19:32:49.791Z,38.98
2023-05-19T19:35:35.166Z,39.04
2023-05-19T19:38:20.659Z,38.73
2023-05-19T19:41:05.993Z,38.65
2023-05-19T19:43:51.423Z,38.90
2023-05-19T19:46:36.961Z,38.53
2023-05-19T19:49:22.127Z,38.84
2023-05-19T19:52:07.496Z,38.77
2023-05-19T19:54:52.949Z,38.77
2023-05-19T19:57:38.409Z,38.36
2023-05-19T20:00:23.692Z,38.81
2023-05-19T20:03:09.131Z,38.80
2023-05-19T20:05:54.322Z,38.84
2023-05-19T20:08:39.753Z,39.12
2023-05-19T20:11:25.168Z,39.41
2023-05-19T20:14:10.517Z,39.98
2023-05-19T20:16:55.925Z,40.60
2023-05-19T20:19:41.138Z,40.02
2023-05-19T20:22:26.386Z,40.88
2023-05-19T20:25:11.888Z,41.10
2023-05-19T20:27:57.179Z,40.78
2023-05-19T20:30:42.675Z,41.42
2023-05-19T20:33:28.122Z,41.77
2023-05-19T20:36:13.547Z,42.32
2023-05-19T20:38:58.895Z,42.89
2023-05-19T20:41:44.503Z,42.60
2023-05-19T20:44:29.792Z,42.54
2023-05-19T20:47:15.114Z,43.37
2023-05-19T20:50:00.488Z,42.65
2023-05-19T20:52:45.947Z,42.44
2023-05-19T20:55:31.540Z,42.18
2023-05-19T20:58:17.940Z,41.98
2023-05-19T21:01:03.351Z,41.99
2023-05-19T21:03:48.877Z,42.02
2023-05-19T21:06:34.261Z,42.09
2023-05-19T21:09:19.498Z,41.96
2023-05-19T21:12:04.919Z,42.03
2023-05-19T21:14:50.360Z,42.05
2023-05-19T21:17:35.953Z,42.10
2023-05-19T21:20:21.427Z,41.93
2023-05-19T21:23:06.754Z,42.25
2023-05-19T21:25:52.201Z,41.81
2023-05-19T21:28:37.672Z,42.11
2023-05-19T21:31:23.313Z,41.61
2023-05-19T21:34:08.575Z,41.94
2023-05-19T21:36:54.016Z,42.01
2023-05-19T21:39:39.309Z,41.97
2023-05-19T21:42:24.745Z,42.19
2023-05-19T21:45:10.408Z,41.48
2023-05-19T21:47:55.882Z,42.30
2023-05-19T21:50:41.400Z,42.05
2023-05-19T21:53:26.744Z,41.49
2023-05-19T21:56:12.086Z,42.06
2023-05-19T21:58:57.544Z,42.40
2023-05-19T22:01:42.965Z,42.11
2023-05-19T22:04:28.276Z,41.82
2023-05-19T22:07:13.626Z,41.83
2023-05-19T22:09:59.138Z,41.88
2023-05-19T22:12:44.480Z,41.64
2023-05-19T22:15:29.941Z,41.93
2023-05-19T22:18:15.450Z,42.15
2023-05-19T22:21:00.673Z,41.76
2023-05-19T22:23:46.078Z,42.38
2023-05-19T22:26:31.417Z,42.32
2023-05-19T22:29:16.812Z,41.76
2023-05-19T22:32:02.311Z,41.93
2023-05-19T22:34:47.596Z,41.86
2023-05-19T22:37:33.064Z,41.93
2023-05-19T22:40:18.301Z,41.66
2023-05-19T22:43:03.717Z,41.42
2023-05-19T22:45:49.219Z,41.87
2023-05-19T22:48:34.511Z,41.98
2023-05-19T22:51:19.954Z,42.08
2023-05-19T22:54:05.296Z,41.69
2023-05-19T22:56:50.401Z,41.52
2023-05-19T22:59:35.791Z,41.55
2023-05-19T23:02:20.945Z,41.67
2023-05-19T23:05:06.440Z,41.96
2023-05-19T23:07:51.831Z,41.68
2023-05-19T23:10:37.226Z,41.60
2023-05-19T23:13:22.596Z,41.88
2023-05-19T23:16:08.064Z,41.83
2023-05-19T23:18:53.542Z,41.60
2023-05-19T23:21:38.891Z,41.65
2023-05-19T23:24:24.291Z,41.73
2023-05-19T23:27:09.568Z,41.87
2023-05-19T23:29:54.898Z,41.56
2023-05-19T23:32:40.190Z,41.96
2023-05-19T23:35:25.505Z,41.60
2023-05-19T23:38:10.931Z,41.03
2023-05-19T23:40:56.177Z,41.64
2023-05-19T23:43:43.888Z,41.56
2023-05-19T23:46:29.008Z,41.35
2023-05-19T23:49:14.350Z,41.56
2023-05-19T23:51:59.765Z,41.79
2023-05-19T23:54:45.178Z,41.56
2023-05-19T23:57:30.651Z,41.83
